sensor_id;sensor_type;location;lat;lon;timestamp;P1;durP1;ratioP1;P2;durP2;ratioP2
48873;SDS011;66155;46.204;5.220;2022-12-18T00:04:25;27.45;;;11.93;;
48873;SDS011;66155;46.204;5.220;2022-12-18T00:09:26;33.67;;;12.82;;
48873;SDS011;66155;46.204;5.220;2022-12-18T00:14:26;29.70;;;11.73;;
48873;SDS011;66155;46.204;5.220;2022-12-18T00:19:27;34.28;;;12.88;;
48873;SDS011;66155;46.204;5.220;2022-12-18T00:24:27;31.58;;;12.52;;
48873;SDS011;66155;46.204;5.220;2022-12-18T00:29:28;22.92;;;9.82;;
48873;SDS011;66155;46.204;5.220;2022-12-18T00:34:28;16.17;;;9.30;;
48873;SDS011;66155;46.204;5.220;2022-12-18T00:39:29;17.88;;;8.73;;
48873;SDS011;66155;46.204;5.220;2022-12-18T00:44:30;21.40;;;7.72;;
48873;SDS011;66155;46.204;5.220;2022-12-18T00:49:30;32.92;;;11.35;;
48873;SDS011;66155;46.204;5.220;2022-12-18T00:54:31;21.67;;;9.48;;
48873;SDS011;66155;46.204;5.220;2022-12-18T00:59:31;27.50;;;10.75;;
48873;SDS011;66155;46.204;5.220;2022-12-18T01:04:32;27.38;;;9.98;;
48873;SDS011;66155;46.204;5.220;2022-12-18T01:09:33;12.23;;;6.57;;
48873;SDS011;66155;46.204;5.220;2022-12-18T01:14:34;23.13;;;9.60;;
48873;SDS011;66155;46.204;5.220;2022-12-18T01:19:35;10.85;;;5.82;;
48873;SDS011;66155;46.204;5.220;2022-12-18T01:24:35;25.38;;;9.52;;
48873;SDS011;66155;46.204;5.220;2022-12-18T01:29:36;24.45;;;8.93;;
48873;SDS011;66155;46.204;5.220;2022-12-18T01:34:36;30.40;;;11.02;;
48873;SDS011;66155;46.204;5.220;2022-12-18T01:39:37;15.35;;;7.18;;
48873;SDS011;66155;46.204;5.220;2022-12-18T01:50:20;23.13;;;9.75;;
48873;SDS011;66155;46.204;5.220;2022-12-18T01:55:29;18.00;;;6.72;;
48873;SDS011;66155;46.204;5.220;2022-12-18T02:00:32;10.52;;;6.18;;
48873;SDS011;66155;46.204;5.220;2022-12-18T02:10:43;26.23;;;8.57;;
48873;SDS011;66155;46.204;5.220;2022-12-18T02:26:36;21.98;;;9.43;;
48873;SDS011;66155;46.204;5.220;2022-12-18T02:32:15;23.75;;;9.45;;
48873;SDS011;66155;46.204;5.220;2022-12-18T02:37:15;19.83;;;7.43;;
48873;SDS011;66155;46.204;5.220;2022-12-18T02:42:18;21.70;;;9.02;;
48873;SDS011;66155;46.204;5.220;2022-12-18T02:47:20;30.55;;;12.02;;
48873;SDS011;66155;46.204;5.220;2022-12-18T03:08:18;25.13;;;9.23;;
48873;SDS011;66155;46.204;5.220;2022-12-18T03:13:27;25.88;;;8.77;;
48873;SDS011;66155;46.204;5.220;2022-12-18T03:18:58;24.10;;;9.55;;
48873;SDS011;66155;46.204;5.220;2022-12-18T03:24:03;24.15;;;8.15;;
48873;SDS011;66155;46.204;5.220;2022-12-18T03:29:08;28.20;;;9.50;;
48873;SDS011;66155;46.204;5.220;2022-12-18T03:34:17;20.25;;;8.55;;
48873;SDS011;66155;46.204;5.220;2022-12-18T03:39:23;25.58;;;9.43;;
48873;SDS011;66155;46.204;5.220;2022-12-18T03:44:29;25.50;;;9.70;;
48873;SDS011;66155;46.204;5.220;2022-12-18T03:54:52;23.13;;;9.77;;
48873;SDS011;66155;46.204;5.220;2022-12-18T04:00:07;31.17;;;10.98;;
48873;SDS011;66155;46.204;5.220;2022-12-18T04:05:11;22.08;;;9.13;;
48873;SDS011;66155;46.204;5.220;2022-12-18T04:10:15;26.45;;;9.60;;
48873;SDS011;66155;46.204;5.220;2022-12-18T04:15:16;28.67;;;9.65;;
48873;SDS011;66155;46.204;5.220;2022-12-18T04:20:16;27.33;;;8.88;;
48873;SDS011;66155;46.204;5.220;2022-12-18T04:25:18;31.23;;;10.63;;
48873;SDS011;66155;46.204;5.220;2022-12-18T04:30:18;30.00;;;10.73;;
48873;SDS011;66155;46.204;5.220;2022-12-18T04:35:19;29.00;;;9.23;;
48873;SDS011;66155;46.204;5.220;2022-12-18T04:40:19;37.35;;;11.30;;
48873;SDS011;66155;46.204;5.220;2022-12-18T04:45:19;35.50;;;11.40;;
48873;SDS011;66155;46.204;5.220;2022-12-18T04:50:20;42.28;;;11.23;;
48873;SDS011;66155;46.204;5.220;2022-12-18T04:55:21;39.83;;;11.20;;
48873;SDS011;66155;46.204;5.220;2022-12-18T05:00:24;31.45;;;10.00;;
48873;SDS011;66155;46.204;5.220;2022-12-18T05:05:25;32.63;;;11.23;;
48873;SDS011;66155;46.204;5.220;2022-12-18T05:10:25;26.73;;;10.18;;
48873;SDS011;66155;46.204;5.220;2022-12-18T05:15:29;32.53;;;10.57;;
48873;SDS011;66155;46.204;5.220;2022-12-18T05:20:30;30.33;;;10.07;;
48873;SDS011;66155;46.204;5.220;2022-12-18T05:25:31;30.30;;;11.48;;
48873;SDS011;66155;46.204;5.220;2022-12-18T05:30:31;23.45;;;10.20;;
48873;SDS011;66155;46.204;5.220;2022-12-18T05:35:35;30.80;;;10.48;;
48873;SDS011;66155;46.204;5.220;2022-12-18T05:40:35;38.30;;;11.05;;
48873;SDS011;66155;46.204;5.220;2022-12-18T05:45:37;31.25;;;10.50;;
48873;SDS011;66155;46.204;5.220;2022-12-18T05:50:38;28.67;;;10.90;;
48873;SDS011;66155;46.204;5.220;2022-12-18T05:55:41;28.52;;;10.35;;
48873;SDS011;66155;46.204;5.220;2022-12-18T06:00:43;29.13;;;10.63;;
48873;SDS011;66155;46.204;5.220;2022-12-18T06:05:45;34.63;;;12.38;;
48873;SDS011;66155;46.204;5.220;2022-12-18T06:10:49;31.38;;;11.43;;
48873;SDS011;66155;46.204;5.220;2022-12-18T06:15:51;31.75;;;11.68;;
48873;SDS011;66155;46.204;5.220;2022-12-18T06:20:55;32.30;;;12.10;;
48873;SDS011;66155;46.204;5.220;2022-12-18T06:25:57;40.40;;;12.95;;
48873;SDS011;66155;46.204;5.220;2022-12-18T06:30:57;37.60;;;13.18;;
48873;SDS011;66155;46.204;5.220;2022-12-18T06:36:16;35.92;;;10.45;;
48873;SDS011;66155;46.204;5.220;2022-12-18T06:41:17;35.42;;;12.10;;
48873;SDS011;66155;46.204;5.220;2022-12-18T06:46:20;34.38;;;12.38;;
48873;SDS011;66155;46.204;5.220;2022-12-18T06:51:21;32.17;;;12.18;;
48873;SDS011;66155;46.204;5.220;2022-12-18T06:56:22;36.15;;;10.85;;
48873;SDS011;66155;46.204;5.220;2022-12-18T07:01:24;34.88;;;12.48;;
48873;SDS011;66155;46.204;5.220;2022-12-18T07:06:25;44.45;;;12.45;;
48873;SDS011;66155;46.204;5.220;2022-12-18T07:11:26;37.67;;;11.93;;
48873;SDS011;66155;46.204;5.220;2022-12-18T07:16:27;34.05;;;12.15;;
48873;SDS011;66155;46.204;5.220;2022-12-18T07:21:30;43.65;;;13.38;;
48873;SDS011;66155;46.204;5.220;2022-12-18T07:26:31;36.53;;;12.60;;
48873;SDS011;66155;46.204;5.220;2022-12-18T07:31:31;41.53;;;12.15;;
48873;SDS011;66155;46.204;5.220;2022-12-18T07:36:32;47.90;;;13.38;;
48873;SDS011;66155;46.204;5.220;2022-12-18T07:41:32;41.35;;;14.48;;
48873;SDS011;66155;46.204;5.220;2022-12-18T07:46:33;45.88;;;14.98;;
48873;SDS011;66155;46.204;5.220;2022-12-18T07:51:33;40.55;;;12.43;;
48873;SDS011;66155;46.204;5.220;2022-12-18T07:56:33;45.05;;;14.50;;
48873;SDS011;66155;46.204;5.220;2022-12-18T08:01:34;47.30;;;14.68;;
48873;SDS011;66155;46.204;5.220;2022-12-18T08:06:35;36.40;;;12.43;;
48873;SDS011;66155;46.204;5.220;2022-12-18T08:11:35;31.85;;;12.52;;
48873;SDS011;66155;46.204;5.220;2022-12-18T08:16:36;33.20;;;12.48;;
48873;SDS011;66155;46.204;5.220;2022-12-18T08:21:37;29.90;;;11.07;;
48873;SDS011;66155;46.204;5.220;2022-12-18T08:26:37;30.27;;;12.40;;
48873;SDS011;66155;46.204;5.220;2022-12-18T08:31:37;33.45;;;13.43;;
48873;SDS011;66155;46.204;5.220;2022-12-18T08:36:38;29.90;;;12.68;;
48873;SDS011;66155;46.204;5.220;2022-12-18T08:41:38;31.23;;;11.65;;
48873;SDS011;66155;46.204;5.220;2022-12-18T08:46:40;32.38;;;12.75;;
48873;SDS011;66155;46.204;5.220;2022-12-18T08:51:41;35.47;;;12.85;;
48873;SDS011;66155;46.204;5.220;2022-12-18T08:56:42;31.85;;;12.25;;
48873;SDS011;66155;46.204;5.220;2022-12-18T09:01:42;29.55;;;14.40;;
48873;SDS011;66155;46.204;5.220;2022-12-18T09:06:43;23.98;;;9.50;;
48873;SDS011;66155;46.204;5.220;2022-12-18T09:11:44;31.60;;;12.90;;
48873;SDS011;66155;46.204;5.220;2022-12-18T09:16:47;22.85;;;10.30;;
48873;SDS011;66155;46.204;5.220;2022-12-18T09:21:47;35.85;;;12.82;;
48873;SDS011;66155;46.204;5.220;2022-12-18T09:26:48;33.90;;;13.80;;
48873;SDS011;66155;46.204;5.220;2022-12-18T09:31:48;30.02;;;12.80;;
48873;SDS011;66155;46.204;5.220;2022-12-18T09:36:49;33.10;;;12.90;;
48873;SDS011;66155;46.204;5.220;2022-12-18T09:41:51;33.00;;;13.43;;
48873;SDS011;66155;46.204;5.220;2022-12-18T09:46:57;31.80;;;12.48;;
48873;SDS011;66155;46.204;5.220;2022-12-18T09:57:22;38.35;;;13.85;;
48873;SDS011;66155;46.204;5.220;2022-12-18T10:02:25;28.52;;;13.20;;
48873;SDS011;66155;46.204;5.220;2022-12-18T10:07:33;31.90;;;13.60;;
48873;SDS011;66155;46.204;5.220;2022-12-18T10:12:44;40.90;;;16.05;;
48873;SDS011;66155;46.204;5.220;2022-12-18T10:28:40;33.83;;;12.55;;
48873;SDS011;66155;46.204;5.220;2022-12-18T10:33:41;28.92;;;12.40;;
48873;SDS011;66155;46.204;5.220;2022-12-18T10:38:41;28.23;;;11.85;;
48873;SDS011;66155;46.204;5.220;2022-12-18T10:43:42;30.30;;;14.40;;
48873;SDS011;66155;46.204;5.220;2022-12-18T10:53:50;31.38;;;11.98;;
48873;SDS011;66155;46.204;5.220;2022-12-18T10:59:01;26.13;;;12.45;;
48873;SDS011;66155;46.204;5.220;2022-12-18T11:04:07;28.17;;;12.35;;
48873;SDS011;66155;46.204;5.220;2022-12-18T11:14:27;31.33;;;12.65;;
48873;SDS011;66155;46.204;5.220;2022-12-18T11:19:43;19.20;;;7.95;;
48873;SDS011;66155;46.204;5.220;2022-12-18T11:24:49;28.20;;;13.50;;
48873;SDS011;66155;46.204;5.220;2022-12-18T11:30:10;26.47;;;12.40;;
48873;SDS011;66155;46.204;5.220;2022-12-18T11:35:21;31.40;;;12.95;;
48873;SDS011;66155;46.204;5.220;2022-12-18T11:40:33;33.67;;;14.90;;
48873;SDS011;66155;46.204;5.220;2022-12-18T11:45:40;29.10;;;13.25;;
48873;SDS011;66155;46.204;5.220;2022-12-18T11:50:49;31.92;;;13.70;;
48873;SDS011;66155;46.204;5.220;2022-12-18T12:07:21;30.98;;;12.82;;
48873;SDS011;66155;46.204;5.220;2022-12-18T12:23:04;13.20;;;6.97;;
48873;SDS011;66155;46.204;5.220;2022-12-18T12:28:14;5.28;;;3.17;;
48873;SDS011;66155;46.204;5.220;2022-12-18T12:38:41;9.10;;;3.45;;
48873;SDS011;66155;46.204;5.220;2022-12-18T12:43:46;7.60;;;2.88;;
48873;SDS011;66155;46.204;5.220;2022-12-18T12:48:50;9.48;;;2.88;;
48873;SDS011;66155;46.204;5.220;2022-12-18T12:53:57;3.75;;;2.60;;
48873;SDS011;66155;46.204;5.220;2022-12-18T12:59:04;5.85;;;3.15;;
48873;SDS011;66155;46.204;5.220;2022-12-18T13:09:23;3.88;;;2.75;;
48873;SDS011;66155;46.204;5.220;2022-12-18T13:14:29;3.78;;;2.90;;
48873;SDS011;66155;46.204;5.220;2022-12-18T13:19:40;5.90;;;3.10;;
48873;SDS011;66155;46.204;5.220;2022-12-18T13:24:41;5.30;;;3.35;;
48873;SDS011;66155;46.204;5.220;2022-12-18T13:34:43;3.60;;;2.80;;
48873;SDS011;66155;46.204;5.220;2022-12-18T13:39:44;4.30;;;2.90;;
48873;SDS011;66155;46.204;5.220;2022-12-18T13:44:44;3.83;;;2.90;;
48873;SDS011;66155;46.204;5.220;2022-12-18T13:49:45;3.10;;;2.80;;
48873;SDS011;66155;46.204;5.220;2022-12-18T13:54:59;5.10;;;3.30;;
48873;SDS011;66155;46.204;5.220;2022-12-18T14:05:27;4.78;;;3.70;;
48873;SDS011;66155;46.204;5.220;2022-12-18T14:10:28;6.90;;;4.53;;
48873;SDS011;66155;46.204;5.220;2022-12-18T14:15:31;4.57;;;4.05;;
48873;SDS011;66155;46.204;5.220;2022-12-18T14:20:33;3.70;;;2.77;;
48873;SDS011;66155;46.204;5.220;2022-12-18T14:25:34;6.50;;;3.30;;
48873;SDS011;66155;46.204;5.220;2022-12-18T14:30:36;6.65;;;3.17;;
48873;SDS011;66155;46.204;5.220;2022-12-18T14:35:39;4.30;;;3.03;;
48873;SDS011;66155;46.204;5.220;2022-12-18T14:40:41;5.03;;;3.10;;
48873;SDS011;66155;46.204;5.220;2022-12-18T14:45:43;8.27;;;4.40;;
48873;SDS011;66155;46.204;5.220;2022-12-18T14:50:44;5.03;;;3.15;;
48873;SDS011;66155;46.204;5.220;2022-12-18T14:55:53;6.15;;;3.60;;
48873;SDS011;66155;46.204;5.220;2022-12-18T15:00:54;7.00;;;3.22;;
48873;SDS011;66155;46.204;5.220;2022-12-18T15:05:54;6.18;;;3.85;;
48873;SDS011;66155;46.204;5.220;2022-12-18T15:10:55;5.78;;;3.85;;
48873;SDS011;66155;46.204;5.220;2022-12-18T15:15:57;6.38;;;4.00;;
48873;SDS011;66155;46.204;5.220;2022-12-18T15:21:09;7.15;;;4.00;;
48873;SDS011;66155;46.204;5.220;2022-12-18T15:26:12;8.20;;;5.63;;
48873;SDS011;66155;46.204;5.220;2022-12-18T15:36:15;4.83;;;3.30;;
48873;SDS011;66155;46.204;5.220;2022-12-18T15:41:18;7.50;;;3.88;;
48873;SDS011;66155;46.204;5.220;2022-12-18T15:46:21;4.68;;;3.70;;
48873;SDS011;66155;46.204;5.220;2022-12-18T15:56:23;4.85;;;3.10;;
48873;SDS011;66155;46.204;5.220;2022-12-18T16:01:43;8.02;;;3.78;;
48873;SDS011;66155;46.204;5.220;2022-12-18T16:06:46;4.30;;;3.13;;
48873;SDS011;66155;46.204;5.220;2022-12-18T16:11:47;7.45;;;3.90;;
48873;SDS011;66155;46.204;5.220;2022-12-18T16:16:48;6.25;;;4.05;;
48873;SDS011;66155;46.204;5.220;2022-12-18T16:21:54;5.20;;;3.63;;
48873;SDS011;66155;46.204;5.220;2022-12-18T16:26:57;7.05;;;3.40;;
48873;SDS011;66155;46.204;5.220;2022-12-18T16:31:59;7.20;;;4.30;;
48873;SDS011;66155;46.204;5.220;2022-12-18T16:37:02;5.95;;;3.50;;
48873;SDS011;66155;46.204;5.220;2022-12-18T16:42:06;6.00;;;3.60;;
48873;SDS011;66155;46.204;5.220;2022-12-18T16:47:07;4.40;;;3.28;;
48873;SDS011;66155;46.204;5.220;2022-12-18T16:52:07;5.65;;;2.92;;
48873;SDS011;66155;46.204;5.220;2022-12-18T16:57:09;5.93;;;3.20;;
48873;SDS011;66155;46.204;5.220;2022-12-18T17:02:14;5.00;;;2.85;;
48873;SDS011;66155;46.204;5.220;2022-12-18T17:07:14;5.97;;;3.10;;
48873;SDS011;66155;46.204;5.220;2022-12-18T17:12:16;5.47;;;3.80;;
48873;SDS011;66155;46.204;5.220;2022-12-18T17:17:17;4.38;;;3.17;;
48873;SDS011;66155;46.204;5.220;2022-12-18T17:22:18;7.43;;;3.47;;
48873;SDS011;66155;46.204;5.220;2022-12-18T17:27:20;5.47;;;3.28;;
48873;SDS011;66155;46.204;5.220;2022-12-18T17:32:20;4.65;;;3.78;;
48873;SDS011;66155;46.204;5.220;2022-12-18T17:37:20;5.65;;;3.60;;
48873;SDS011;66155;46.204;5.220;2022-12-18T17:42:21;5.35;;;3.50;;
48873;SDS011;66155;46.204;5.220;2022-12-18T17:47:21;3.55;;;3.20;;
48873;SDS011;66155;46.204;5.220;2022-12-18T17:52:22;5.07;;;3.47;;
48873;SDS011;66155;46.204;5.220;2022-12-18T17:57:23;4.93;;;3.20;;
48873;SDS011;66155;46.204;5.220;2022-12-18T18:02:23;4.20;;;3.22;;
48873;SDS011;66155;46.204;5.220;2022-12-18T18:07:24;4.68;;;3.40;;
48873;SDS011;66155;46.204;5.220;2022-12-18T18:12:24;6.82;;;3.28;;
48873;SDS011;66155;46.204;5.220;2022-12-18T18:17:44;6.55;;;3.38;;
48873;SDS011;66155;46.204;5.220;2022-12-18T18:22:44;4.82;;;4.00;;
48873;SDS011;66155;46.204;5.220;2022-12-18T18:27:45;4.78;;;3.17;;
48873;SDS011;66155;46.204;5.220;2022-12-18T18:32:45;3.33;;;2.83;;
48873;SDS011;66155;46.204;5.220;2022-12-18T18:37:49;5.82;;;3.30;;
48873;SDS011;66155;46.204;5.220;2022-12-18T18:42:49;6.22;;;3.40;;
48873;SDS011;66155;46.204;5.220;2022-12-18T18:47:50;5.57;;;2.97;;
48873;SDS011;66155;46.204;5.220;2022-12-18T18:52:50;4.93;;;3.38;;
48873;SDS011;66155;46.204;5.220;2022-12-18T18:57:51;6.32;;;3.25;;
48873;SDS011;66155;46.204;5.220;2022-12-18T19:02:51;6.90;;;3.00;;
48873;SDS011;66155;46.204;5.220;2022-12-18T19:07:52;3.97;;;2.92;;
48873;SDS011;66155;46.204;5.220;2022-12-18T19:12:52;6.25;;;3.30;;
48873;SDS011;66155;46.204;5.220;2022-12-18T19:18:11;6.40;;;3.63;;
48873;SDS011;66155;46.204;5.220;2022-12-18T19:23:12;7.28;;;3.20;;
48873;SDS011;66155;46.204;5.220;2022-12-18T19:28:12;4.03;;;2.80;;
48873;SDS011;66155;46.204;5.220;2022-12-18T19:33:13;8.93;;;3.10;;
48873;SDS011;66155;46.204;5.220;2022-12-18T19:38:13;4.45;;;2.85;;
48873;SDS011;66155;46.204;5.220;2022-12-18T19:43:14;6.05;;;3.30;;
48873;SDS011;66155;46.204;5.220;2022-12-18T19:48:14;4.25;;;3.15;;
48873;SDS011;66155;46.204;5.220;2022-12-18T19:53:15;4.03;;;2.72;;
48873;SDS011;66155;46.204;5.220;2022-12-18T19:58:15;4.55;;;3.03;;
48873;SDS011;66155;46.204;5.220;2022-12-18T20:03:16;5.93;;;2.80;;
48873;SDS011;66155;46.204;5.220;2022-12-18T20:08:16;4.13;;;2.80;;
48873;SDS011;66155;46.204;5.220;2022-12-18T20:13:17;5.10;;;3.15;;
48873;SDS011;66155;46.204;5.220;2022-12-18T20:18:17;4.93;;;3.00;;
48873;SDS011;66155;46.204;5.220;2022-12-18T20:23:18;3.83;;;2.50;;
48873;SDS011;66155;46.204;5.220;2022-12-18T20:28:19;5.28;;;2.72;;
48873;SDS011;66155;46.204;5.220;2022-12-18T20:33:20;4.57;;;2.97;;
48873;SDS011;66155;46.204;5.220;2022-12-18T20:38:20;4.25;;;2.55;;
48873;SDS011;66155;46.204;5.220;2022-12-18T20:43:21;3.50;;;2.35;;
48873;SDS011;66155;46.204;5.220;2022-12-18T20:48:24;3.15;;;2.60;;
48873;SDS011;66155;46.204;5.220;2022-12-18T20:53:24;5.80;;;3.17;;
48873;SDS011;66155;46.204;5.220;2022-12-18T20:58:25;4.22;;;2.95;;
48873;SDS011;66155;46.204;5.220;2022-12-18T21:03:26;4.90;;;2.85;;
48873;SDS011;66155;46.204;5.220;2022-12-18T21:08:26;5.57;;;2.67;;
48873;SDS011;66155;46.204;5.220;2022-12-18T21:13:27;4.35;;;2.97;;
48873;SDS011;66155;46.204;5.220;2022-12-18T21:18:27;3.50;;;2.60;;
48873;SDS011;66155;46.204;5.220;2022-12-18T21:23:28;3.88;;;2.38;;
48873;SDS011;66155;46.204;5.220;2022-12-18T21:28:28;6.75;;;3.08;;
48873;SDS011;66155;46.204;5.220;2022-12-18T21:33:29;4.50;;;2.67;;
48873;SDS011;66155;46.204;5.220;2022-12-18T21:38:29;5.10;;;2.88;;
48873;SDS011;66155;46.204;5.220;2022-12-18T21:43:30;5.50;;;2.60;;
48873;SDS011;66155;46.204;5.220;2022-12-18T21:48:49;4.50;;;2.97;;
48873;SDS011;66155;46.204;5.220;2022-12-18T21:53:49;6.18;;;2.90;;
48873;SDS011;66155;46.204;5.220;2022-12-18T21:58:50;5.60;;;2.50;;
48873;SDS011;66155;46.204;5.220;2022-12-18T22:03:51;5.35;;;2.80;;
48873;SDS011;66155;46.204;5.220;2022-12-18T22:08:52;5.13;;;3.03;;
48873;SDS011;66155;46.204;5.220;2022-12-18T22:13:52;3.60;;;2.65;;
48873;SDS011;66155;46.204;5.220;2022-12-18T22:18:53;4.45;;;2.35;;
48873;SDS011;66155;46.204;5.220;2022-12-18T22:23:55;7.03;;;2.92;;
48873;SDS011;66155;46.204;5.220;2022-12-18T22:28:59;4.10;;;2.60;;
48873;SDS011;66155;46.204;5.220;2022-12-18T22:34:18;5.25;;;2.65;;
48873;SDS011;66155;46.204;5.220;2022-12-18T22:39:20;3.47;;;2.70;;
48873;SDS011;66155;46.204;5.220;2022-12-18T22:44:28;4.88;;;2.70;;
48873;SDS011;66155;46.204;5.220;2022-12-18T22:49:28;5.38;;;2.60;;
48873;SDS011;66155;46.204;5.220;2022-12-18T22:54:29;5.95;;;2.50;;
48873;SDS011;66155;46.204;5.220;2022-12-18T22:59:29;4.38;;;2.60;;
48873;SDS011;66155;46.204;5.220;2022-12-18T23:04:30;4.53;;;2.38;;
48873;SDS011;66155;46.204;5.220;2022-12-18T23:09:31;3.58;;;2.60;;
48873;SDS011;66155;46.204;5.220;2022-12-18T23:14:32;4.35;;;2.50;;
48873;SDS011;66155;46.204;5.220;2022-12-18T23:19:35;3.03;;;2.30;;
48873;SDS011;66155;46.204;5.220;2022-12-18T23:24:36;3.42;;;3.13;;
48873;SDS011;66155;46.204;5.220;2022-12-18T23:29:36;5.13;;;2.83;;
48873;SDS011;66155;46.204;5.220;2022-12-18T23:34:36;3.50;;;2.70;;
48873;SDS011;66155;46.204;5.220;2022-12-18T23:39:37;3.92;;;2.88;;
48873;SDS011;66155;46.204;5.220;2022-12-18T23:44:37;3.25;;;2.20;;
48873;SDS011;66155;46.204;5.220;2022-12-18T23:49:41;4.55;;;2.60;;
48873;SDS011;66155;46.204;5.220;2022-12-18T23:54:42;3.60;;;2.80;;
48873;SDS011;66155;46.204;5.220;2022-12-18T23:59:42;4.25;;;2.47;;
